createdAt,value
2022-11-24T00:04:26.900Z,43.70
2022-11-24T00:12:53.626Z,34.70
2022-11-24T00:21:18.792Z,33.80
2022-11-24T00:29:42.389Z,34.10
2022-11-24T00:38:05.641Z,37.40
2022-11-24T00:46:29.268Z,25.90
2022-11-24T00:54:52.856Z,28.60
2022-11-24T01:03:17.262Z,27.90
2022-11-24T01:11:59.475Z,28.70
2022-11-24T01:20:23.336Z,29.40
2022-11-24T01:28:47.904Z,26.00
2022-11-24T01:37:12.045Z,23.20
2022-11-24T01:45:41.807Z,25.20
2022-11-24T02:02:34.751Z,23.30
2022-11-24T02:11:02.627Z,23.10
2022-11-24T02:19:44.507Z,26.60
2022-11-24T06:51:33.172Z,22.60
2022-11-24T06:59:57.513Z,19.40
2022-11-24T07:08:20.598Z,19.80
2022-11-24T07:16:43.826Z,18.30
2022-11-24T07:25:09.906Z,21.80
2022-11-24T07:33:33.190Z,19.30
2022-11-24T07:42:11.636Z,24.80
2022-11-24T07:50:34.862Z,21.00
2022-11-24T07:58:57.923Z,24.30
2022-11-24T08:07:21.279Z,21.50
2022-11-24T08:15:44.499Z,23.60
2022-11-24T08:25:11.225Z,23.70
2022-11-24T08:33:34.969Z,20.60
2022-11-24T08:42:12.866Z,18.50
2022-11-24T08:50:37.816Z,19.70
2022-11-24T08:59:00.995Z,16.40
2022-11-24T09:07:24.332Z,15.60
2022-11-24T09:15:47.604Z,14.90
2022-11-24T09:24:11.270Z,19.00
2022-11-24T09:32:34.344Z,17.40
2022-11-24T09:41:21.337Z,19.70
2022-11-24T09:50:18.212Z,19.80
2022-11-24T09:59:02.768Z,18.20
2022-11-24T10:07:38.274Z,20.50
2022-11-24T10:16:45.605Z,20.10
2022-11-24T10:25:21.374Z,23.00
2022-11-24T10:33:48.611Z,26.00
2022-11-24T10:42:30.210Z,18.20
2022-11-24T10:51:16.118Z,20.30
2022-11-24T10:59:46.587Z,21.50
2022-11-24T11:10:20.678Z,18.30
2022-11-24T11:19:48.821Z,22.50
2022-11-24T11:28:24.831Z,19.50
2022-11-24T11:37:04.664Z,21.40
2022-11-24T11:47:30.329Z,23.10
2022-11-24T11:56:21.727Z,18.50
2022-11-24T12:04:59.668Z,19.30
2022-11-24T12:13:28.947Z,19.80
2022-11-24T12:22:01.097Z,22.10
2022-11-24T12:30:24.934Z,17.00
2022-11-24T12:39:12.694Z,21.30
2022-11-24T12:47:54.844Z,17.80
2022-11-24T12:56:26.509Z,24.90
2022-11-24T13:05:13.682Z,22.20
2022-11-24T13:13:58.905Z,29.90
2022-11-24T13:22:26.437Z,28.10
2022-11-24T13:30:55.013Z,21.50
2022-11-24T13:39:21.434Z,24.80
2022-11-24T13:47:48.130Z,24.40
2022-11-24T13:56:14.443Z,28.20
2022-11-24T14:04:39.903Z,29.00
2022-11-24T14:13:33.696Z,29.90
2022-11-24T14:39:50.800Z,31.50
2022-11-24T17:23:48.324Z,40.10
2022-11-24T17:32:14.027Z,52.10
2022-11-24T17:40:39.931Z,74.20
2022-11-24T17:49:01.938Z,48.40
2022-11-24T17:57:25.779Z,71.60
2022-11-24T18:05:47.856Z,48.00
